Time;durP1;ratioP1;P1;durP2;ratioP2;P2;SDS_P1;SDS_P2;PMS_P1;PMS_P2;Temp;Humidity;BMP_temperature;BMP_pressure;BME280_temperature;BME280_humidity;BME280_pressure;Samples;Min_cycle;Max_cycle;Signal;HPM_P1;HPM_P2
2024/02/17 00:01:03;;;;;;;13.83;12.50;;;;;;;;;;4951250;28;20582;-71
2024/02/17 00:03:31;;;;;;;13.27;11.87;;;;;;;;;;4937310;28;20612;-71
2024/02/17 00:06:00;;;;;;;14.13;11.40;;;;;;;;;;4934804;28;20600;-71
2024/02/17 00:08:29;;;;;;;17.70;12.17;;;;;;;;;;4949752;28;20640;-71
2024/02/17 00:10:57;;;;;;;13.67;11.30;;;;;;;;;;4944372;28;21003;-70
2024/02/17 00:13:25;;;;;;;14.70;12.73;;;;;;;;;;4950578;28;20628;-71
2024/02/17 00:15:53;;;;;;;12.30;11.20;;;;;;;;;;4953640;28;21066;-70
2024/02/17 00:18:26;;;;;;;13.20;11.90;;;;;;;;;;4936900;28;20658;-70
2024/02/17 00:20:57;;;;;;;15.67;13.00;;;;;;;;;;4932880;28;20629;-69
2024/02/17 00:23:26;;;;;;;14.60;12.97;;;;;;;;;;4944778;28;20611;-70
2024/02/17 00:25:55;;;;;;;13.50;12.20;;;;;;;;;;4935747;28;20570;-71
2024/02/17 00:28:26;;;;;;;15.13;11.80;;;;;;;;;;4928303;28;21210;-71
2024/02/17 00:30:55;;;;;;;15.05;12.30;;;;;;;;;;4934744;28;20577;-69
2024/02/17 00:33:23;;;;;;;13.03;11.50;;;;;;;;;;4945043;28;20239;-71
2024/02/17 00:35:51;;;;;;;15.77;12.27;;;;;;;;;;4947220;28;20628;-69
2024/02/17 00:38:20;;;;;;;15.00;11.63;;;;;;;;;;4951401;28;20596;-71
2024/02/17 00:40:49;;;;;;;13.93;12.27;;;;;;;;;;4951014;28;20940;-71
2024/02/17 00:43:17;;;;;;;15.30;12.20;;;;;;;;;;4935306;28;20637;-71
2024/02/17 00:45:48;;;;;;;12.83;11.53;;;;;;;;;;4933929;28;20662;-71
2024/02/17 00:48:16;;;;;;;14.53;12.50;;;;;;;;;;4929058;28;21311;-71
2024/02/17 00:50:44;;;;;;;16.20;12.03;;;;;;;;;;4921035;28;20627;-73
2024/02/17 00:53:13;;;;;;;13.53;12.23;;;;;;;;;;4939186;28;21027;-71
2024/02/17 00:55:41;;;;;;;12.47;11.17;;;;;;;;;;4940433;28;20632;-73
2024/02/17 00:58:10;;;;;;;11.53;9.57;;;;;;;;;;4951603;28;21000;-71
2024/02/17 01:00:38;;;;;;;12.67;11.10;;;;;;;;;;4948029;28;20613;-72
2024/02/17 01:03:07;;;;;;;13.53;12.07;;;;;;;;;;4941805;28;20605;-71
2024/02/17 01:05:36;;;;;;;16.70;9.87;;;;;;;;;;4947135;28;20592;-71
2024/02/17 01:08:05;;;;;;;18.63;11.40;;;;;;;;;;4933147;28;20676;-71
2024/02/17 01:10:33;;;;;;;13.90;12.30;;;;;;;;;;4929903;28;20626;-72
2024/02/17 01:13:01;;;;;;;20.23;13.57;;;;;;;;;;4934675;28;21036;-72
2024/02/17 01:15:31;;;;;;;13.97;11.37;;;;;;;;;;4944050;28;20601;-72
2024/02/17 01:17:59;;;;;;;17.73;11.97;;;;;;;;;;4918906;28;20680;-71
2024/02/17 01:20:27;;;;;;;13.33;11.93;;;;;;;;;;4916751;28;20590;-72
2024/02/17 01:22:55;;;;;;;14.53;11.70;;;;;;;;;;4924950;28;21333;-72
2024/02/17 01:25:24;;;;;;;13.40;10.20;;;;;;;;;;4935955;28;20946;-71
2024/02/17 01:27:53;;;;;;;13.37;11.93;;;;;;;;;;4996744;28;21296;-73
2024/02/17 01:30:21;;;;;;;12.93;10.97;;;;;;;;;;4979720;28;20713;-73
2024/02/17 01:32:51;;;;;;;11.07;10.03;;;;;;;;;;4989231;28;20720;-72
2024/02/17 01:35:19;;;;;;;11.90;10.80;;;;;;;;;;4988834;28;20667;-73
2024/02/17 01:37:48;;;;;;;11.40;10.20;;;;;;;;;;4980983;28;20721;-73
2024/02/17 01:40:18;;;;;;;12.97;11.77;;;;;;;;;;4980355;28;20697;-71
2024/02/17 01:42:46;;;;;;;14.73;11.67;;;;;;;;;;4979290;28;21227;-72
2024/02/17 01:45:14;;;;;;;13.33;10.87;;;;;;;;;;4990586;28;20739;-73
2024/02/17 01:47:43;;;;;;;11.83;10.63;;;;;;;;;;4980240;28;20755;-73
2024/02/17 01:50:12;;;;;;;14.37;11.57;;;;;;;;;;4962904;28;20738;-73
2024/02/17 01:52:41;;;;;;;13.70;11.13;;;;;;;;;;4981417;28;21244;-73
2024/02/17 01:55:09;;;;;;;19.30;13.30;;;;;;;;;;4990970;28;20693;-73
2024/02/17 01:57:37;;;;;;;15.93;11.37;;;;;;;;;;4982482;28;20728;-74
2024/02/17 02:00:06;;;;;;;12.00;10.80;;;;;;;;;;4995102;28;20693;-72
2024/02/17 02:02:40;;;;;;;11.47;10.27;;;;;;;;;;4991127;28;20683;-73
2024/02/17 02:05:08;;;;;;;11.40;10.13;;;;;;;;;;4981506;28;20611;-73
2024/02/17 02:07:37;;;;;;;18.60;12.80;;;;;;;;;;4979947;28;20725;-73
2024/02/17 02:10:06;;;;;;;11.33;10.20;;;;;;;;;;4979626;28;21322;-73
2024/02/17 02:12:34;;;;;;;12.40;10.90;;;;;;;;;;4982651;28;20751;-73
2024/02/17 02:15:03;;;;;;;13.40;10.57;;;;;;;;;;4987304;28;20664;-71
2024/02/17 02:17:31;;;;;;;11.67;10.67;;;;;;;;;;4981550;28;20680;-72
2024/02/17 02:19:59;;;;;;;11.30;10.13;;;;;;;;;;4982506;28;20680;-73
2024/02/17 02:22:27;;;;;;;12.93;11.40;;;;;;;;;;4981707;28;20725;-72
2024/02/17 02:24:58;;;;;;;11.70;10.50;;;;;;;;;;4980490;28;20697;-73
2024/02/17 02:27:27;;;;;;;14.07;10.50;;;;;;;;;;4984615;28;20704;-73
2024/02/17 02:29:56;;;;;;;15.10;12.87;;;;;;;;;;4997673;28;20699;-72
2024/02/17 02:32:26;;;;;;;29.67;19.03;;;;;;;;;;4996083;28;21110;-73
2024/02/17 02:34:54;;;;;;;15.67;13.03;;;;;;;;;;4986274;28;21076;-72
2024/02/17 02:37:22;;;;;;;14.50;11.60;;;;;;;;;;4980371;28;20718;-73
2024/02/17 02:39:50;;;;;;;13.90;11.80;;;;;;;;;;4997410;28;20689;-72
2024/02/17 02:42:18;;;;;;;13.70;10.80;;;;;;;;;;4997994;28;20728;-72
2024/02/17 02:44:48;;;;;;;18.03;13.53;;;;;;;;;;4993692;28;20697;-73
2024/02/17 02:47:18;;;;;;;11.13;10.00;;;;;;;;;;4984729;28;20692;-73
2024/02/17 02:49:46;;;;;;;14.27;11.67;;;;;;;;;;4961021;28;20668;-72
2024/02/17 02:52:15;;;;;;;15.20;11.90;;;;;;;;;;4988387;28;21042;-72
2024/02/17 02:54:43;;;;;;;19.10;11.40;;;;;;;;;;4978353;28;20684;-72
2024/02/17 02:57:11;;;;;;;12.40;9.27;;;;;;;;;;4982718;28;20692;-73
2024/02/17 02:59:39;;;;;;;13.47;10.60;;;;;;;;;;4982406;28;20594;-73
2024/02/17 03:02:09;;;;;;;12.73;10.30;;;;;;;;;;4992014;28;20718;-73
2024/02/17 03:04:37;;;;;;;19.57;13.20;;;;;;;;;;4972004;28;20609;-72
2024/02/17 03:07:05;;;;;;;19.13;12.60;;;;;;;;;;4990797;28;20719;-71
2024/02/17 03:09:34;;;;;;;19.43;12.30;;;;;;;;;;4963888;28;20288;-73
2024/02/17 03:12:02;;;;;;;11.30;10.17;;;;;;;;;;4995866;28;20601;-75
2024/02/17 03:14:30;;;;;;;11.43;10.20;;;;;;;;;;4997682;28;20699;-72
2024/02/17 03:16:58;;;;;;;12.03;9.40;;;;;;;;;;4996867;28;20612;-72
2024/02/17 03:19:28;;;;;;;11.77;10.10;;;;;;;;;;4999877;28;20683;-72
2024/02/17 03:21:56;;;;;;;11.40;10.30;;;;;;;;;;4996065;28;20601;-72
2024/02/17 03:24:24;;;;;;;9.60;8.80;;;;;;;;;;4989348;28;20599;-72
2024/02/17 03:26:52;;;;;;;11.70;10.13;;;;;;;;;;4989861;28;20676;-71
2024/02/17 03:29:21;;;;;;;10.70;9.63;;;;;;;;;;4981096;28;20620;-72
2024/02/17 03:31:50;;;;;;;13.60;10.30;;;;;;;;;;4961998;28;20619;-71
2024/02/17 03:34:18;;;;;;;9.03;8.13;;;;;;;;;;4981360;28;20639;-72
2024/02/17 03:36:48;;;;;;;10.48;8.88;;;;;;;;;;4981838;28;20681;-73
2024/02/17 03:39:18;;;;;;;9.07;7.80;;;;;;;;;;4999662;28;20214;-72
2024/02/17 03:41:47;;;;;;;8.45;7.20;;;;;;;;;;5000262;28;20197;-72
2024/02/17 03:44:15;;;;;;;7.67;6.80;;;;;;;;;;4998000;28;20275;-71
2024/02/17 03:46:43;;;;;;;9.02;6.63;;;;;;;;;;4986505;28;20590;-72
2024/02/17 03:49:12;;;;;;;7.70;6.35;;;;;;;;;;4988930;28;20227;-73
2024/02/17 03:51:40;;;;;;;11.77;7.73;;;;;;;;;;4980890;28;20331;-71
2024/02/17 03:54:09;;;;;;;10.93;7.07;;;;;;;;;;4967948;28;20723;-72
2024/02/17 03:56:37;;;;;;;6.75;6.15;;;;;;;;;;5000717;28;20275;-72
2024/02/17 03:59:06;;;;;;;6.88;5.72;;;;;;;;;;5000167;28;20717;-71
2024/02/17 04:01:35;;;;;;;7.22;6.53;;;;;;;;;;4981387;28;20278;-72
2024/02/17 04:04:04;;;;;;;8.43;7.50;;;;;;;;;;4999019;28;20705;-72
2024/02/17 04:06:32;;;;;;;7.93;7.22;;;;;;;;;;4963869;28;21239;-72
2024/02/17 04:09:01;;;;;;;7.40;6.70;;;;;;;;;;4980475;28;20221;-72
2024/02/17 04:11:30;;;;;;;8.23;7.45;;;;;;;;;;4993815;28;20258;-71
2024/02/17 04:13:58;;;;;;;8.43;7.70;;;;;;;;;;4997839;28;20203;-72
2024/02/17 04:16:27;;;;;;;11.13;7.30;;;;;;;;;;4982585;28;20242;-71
2024/02/17 04:18:55;;;;;;;7.47;6.78;;;;;;;;;;4999515;28;20279;-72
2024/02/17 04:21:23;;;;;;;8.02;6.63;;;;;;;;;;4999651;28;20289;-71
2024/02/17 04:23:51;;;;;;;7.95;7.03;;;;;;;;;;4983394;28;20725;-72
2024/02/17 04:26:20;;;;;;;7.68;6.88;;;;;;;;;;4998506;28;20282;-72
2024/02/17 04:28:49;;;;;;;7.20;6.50;;;;;;;;;;4988970;28;20278;-72
2024/02/17 04:31:17;;;;;;;7.22;6.53;;;;;;;;;;4980464;28;20227;-71
2024/02/17 04:33:46;;;;;;;7.55;6.85;;;;;;;;;;4991478;28;20314;-70
2024/02/17 04:36:14;;;;;;;7.50;6.80;;;;;;;;;;4979893;28;20291;-72
2024/02/17 04:38:42;;;;;;;8.70;7.80;;;;;;;;;;4981285;28;20278;-72
2024/02/17 04:41:10;;;;;;;14.57;11.80;;;;;;;;;;4980328;28;20270;-71
2024/02/17 04:43:38;;;;;;;13.93;11.20;;;;;;;;;;4997146;28;20604;-72
2024/02/17 04:46:08;;;;;;;10.40;8.65;;;;;;;;;;4988362;28;20278;-72
2024/02/17 04:48:36;;;;;;;9.05;8.00;;;;;;;;;;4993898;28;20209;-72
2024/02/17 04:51:04;;;;;;;11.30;9.55;;;;;;;;;;4995294;28;20206;-71
2024/02/17 04:53:32;;;;;;;23.70;14.00;;;;;;;;;;5001399;28;20258;-71
2024/02/17 04:56:00;;;;;;;10.85;9.68;;;;;;;;;;4991206;28;20263;-70
2024/02/17 04:58:29;;;;;;;12.25;10.15;;;;;;;;;;4982428;28;20263;-72
2024/02/17 05:00:57;;;;;;;9.63;8.70;;;;;;;;;;4994835;28;20246;-70
2024/02/17 05:03:27;;;;;;;12.18;9.05;;;;;;;;;;4999080;28;20289;-70
2024/02/17 05:05:55;;;;;;;9.75;8.75;;;;;;;;;;4998013;28;20625;-73
2024/02/17 05:08:23;;;;;;;8.88;7.20;;;;;;;;;;4986402;28;20277;-72
2024/02/17 05:10:51;;;;;;;9.02;8.13;;;;;;;;;;5001513;28;20297;-72
2024/02/17 05:13:20;;;;;;;9.23;7.90;;;;;;;;;;5000505;28;20294;-71
2024/02/17 05:15:51;;;;;;;8.02;7.20;;;;;;;;;;4991724;28;20282;-71
2024/02/17 05:18:20;;;;;;;8.30;7.50;;;;;;;;;;4988666;28;20294;-73
2024/02/17 05:20:49;;;;;;;9.00;7.22;;;;;;;;;;5001491;28;20246;-72
2024/02/17 05:23:17;;;;;;;8.63;7.50;;;;;;;;;;5001487;28;20285;-71
2024/02/17 05:25:46;;;;;;;8.07;7.25;;;;;;;;;;4988940;28;20282;-70
2024/02/17 05:28:14;;;;;;;7.28;6.50;;;;;;;;;;4980783;28;20357;-71
2024/02/17 05:30:42;;;;;;;8.85;6.63;;;;;;;;;;4997256;28;20353;-71
2024/02/17 05:33:10;;;;;;;8.20;7.20;;;;;;;;;;4995800;28;20301;-71
2024/02/17 05:35:39;;;;;;;9.32;7.32;;;;;;;;;;4982228;28;20274;-71
2024/02/17 05:38:08;;;;;;;10.77;6.95;;;;;;;;;;4984071;28;20290;-71
2024/02/17 05:40:36;;;;;;;8.60;7.07;;;;;;;;;;4980849;28;20250;-71
2024/02/17 05:43:05;;;;;;;8.10;7.05;;;;;;;;;;4996469;28;20262;-71
2024/02/17 05:45:33;;;;;;;7.55;6.85;;;;;;;;;;4980496;28;20262;-72
2024/02/17 05:48:01;;;;;;;8.00;7.20;;;;;;;;;;4988752;28;20544;-72
2024/02/17 05:50:30;;;;;;;9.23;6.57;;;;;;;;;;4998751;28;20286;-72
2024/02/17 05:52:58;;;;;;;8.15;7.35;;;;;;;;;;4996082;28;20289;-71
2024/02/17 05:55:28;;;;;;;11.50;7.50;;;;;;;;;;4990605;28;20250;-72
2024/02/17 05:57:56;;;;;;;7.70;6.90;;;;;;;;;;4993880;28;20333;-72
2024/02/17 06:00:24;;;;;;;7.20;6.28;;;;;;;;;;4999961;28;20281;-72
2024/02/17 06:02:52;;;;;;;8.45;7.20;;;;;;;;;;4992205;28;20278;-73
2024/02/17 06:05:21;;;;;;;8.23;7.20;;;;;;;;;;4982929;28;20266;-72
2024/02/17 06:07:49;;;;;;;9.90;7.60;;;;;;;;;;4999904;28;20741;-71
2024/02/17 06:10:17;;;;;;;8.77;7.72;;;;;;;;;;4981841;28;20270;-70
2024/02/17 06:12:48;;;;;;;10.35;8.43;;;;;;;;;;5002087;28;20305;-70
2024/02/17 06:15:17;;;;;;;26.13;16.05;;;;;;;;;;4997467;28;20285;-70
2024/02/17 06:21:10;;;;;;;17.83;13.80;;;;;;;;;;4982001;28;20258;-71
2024/02/17 06:23:24;;;;;;;20.90;15.32;;;;;;;;;;4981789;28;20294;-72
2024/02/17 06:25:53;;;;;;;20.08;14.80;;;;;;;;;;4995314;28;20278;-71
2024/02/17 06:28:22;;;;;;;14.93;11.55;;;;;;;;;;4989433;28;20284;-71
2024/02/17 06:30:50;;;;;;;11.90;10.63;;;;;;;;;;4983770;28;20693;-71
2024/02/17 06:33:19;;;;;;;17.45;12.02;;;;;;;;;;4993828;28;20325;-70
2024/02/17 06:35:47;;;;;;;13.45;10.85;;;;;;;;;;4996542;28;20286;-71
2024/02/17 06:38:15;;;;;;;13.18;10.45;;;;;;;;;;5004409;28;20290;-71
2024/02/17 06:40:43;;;;;;;15.85;10.68;;;;;;;;;;4994794;28;20288;-72
2024/02/17 06:43:11;;;;;;;14.85;11.23;;;;;;;;;;4984742;28;20445;-72
2024/02/17 06:45:41;;;;;;;16.98;11.05;;;;;;;;;;4987111;28;20277;-71
2024/02/17 06:48:11;;;;;;;22.95;18.40;;;;;;;;;;4996836;28;20262;-72
2024/02/17 06:50:39;;;;;;;12.40;9.35;;;;;;;;;;4982723;28;20262;-72
2024/02/17 06:53:07;;;;;;;15.18;10.98;;;;;;;;;;4988052;28;20277;-71
2024/02/17 06:55:36;;;;;;;23.25;12.48;;;;;;;;;;4997591;28;20223;-72
2024/02/17 06:58:04;;;;;;;23.85;16.77;;;;;;;;;;4988857;28;20672;-72
2024/02/17 07:00:32;;;;;;;18.73;13.45;;;;;;;;;;4998732;28;20301;-70
2024/02/17 07:03:03;;;;;;;14.95;11.32;;;;;;;;;;4998231;28;20258;-72
2024/02/17 07:05:32;;;;;;;24.50;13.25;;;;;;;;;;4972344;28;20263;-72
2024/02/17 07:08:00;;;;;;;17.73;13.27;;;;;;;;;;5001525;28;20290;-71
2024/02/17 07:10:29;;;;;;;15.35;10.30;;;;;;;;;;4999831;28;20258;-72
2024/02/17 07:12:57;;;;;;;14.70;11.15;;;;;;;;;;4999070;28;20255;-72
2024/02/17 07:15:25;;;;;;;18.15;12.00;;;;;;;;;;5004283;28;20267;-70
2024/02/17 07:17:53;;;;;;;12.43;9.55;;;;;;;;;;4994236;28;20291;-70
2024/02/17 07:20:23;;;;;;;13.43;10.50;;;;;;;;;;4984830;28;20203;-72
2024/02/17 07:22:51;;;;;;;11.07;9.40;;;;;;;;;;4968146;28;20259;-71
2024/02/17 07:25:19;;;;;;;12.23;10.38;;;;;;;;;;4991983;28;20273;-72
2024/02/17 07:27:48;;;;;;;10.75;9.18;;;;;;;;;;4996635;28;20724;-70
2024/02/17 07:30:17;;;;;;;16.25;10.32;;;;;;;;;;4992444;28;20278;-71
2024/02/17 07:32:45;;;;;;;18.67;11.73;;;;;;;;;;4993846;28;20275;-71
2024/02/17 07:35:13;;;;;;;15.40;9.45;;;;;;;;;;4995808;28;20290;-71
2024/02/17 07:37:43;;;;;;;13.90;9.95;;;;;;;;;;4992567;28;20307;-71
2024/02/17 07:40:12;;;;;;;15.30;10.25;;;;;;;;;;4991053;28;20250;-72
2024/02/17 07:42:40;;;;;;;15.40;9.43;;;;;;;;;;4995457;28;20279;-71
2024/02/17 07:45:08;;;;;;;13.40;10.50;;;;;;;;;;4999764;28;20259;-72
2024/02/17 07:47:36;;;;;;;15.48;11.27;;;;;;;;;;4997278;28;20254;-72
2024/02/17 07:50:07;;;;;;;15.60;11.85;;;;;;;;;;5007309;28;20228;-71
2024/02/17 07:52:35;;;;;;;15.25;10.18;;;;;;;;;;5008470;28;20289;-72
2024/02/17 07:55:05;;;;;;;14.60;10.00;;;;;;;;;;5008490;28;20326;-72
2024/02/17 07:57:33;;;;;;;15.13;11.13;;;;;;;;;;4988369;28;20274;-71
2024/02/17 08:00:02;;;;;;;15.82;10.68;;;;;;;;;;4983735;28;20323;-72
2024/02/17 08:02:32;;;;;;;15.15;11.05;;;;;;;;;;4992108;28;20274;-72
2024/02/17 08:05:02;;;;;;;13.45;10.55;;;;;;;;;;5002282;28;20242;-71
2024/02/17 08:07:30;;;;;;;21.08;11.98;;;;;;;;;;4985144;28;20267;-71
2024/02/17 08:09:58;;;;;;;18.35;14.20;;;;;;;;;;4988635;28;20251;-72
2024/02/17 08:12:28;;;;;;;23.85;16.58;;;;;;;;;;4981092;28;20297;-71
2024/02/17 08:14:56;;;;;;;20.08;14.77;;;;;;;;;;5003861;28;20274;-71
2024/02/17 08:17:24;;;;;;;18.80;15.52;;;;;;;;;;4999248;28;20258;-72
2024/02/17 08:19:52;;;;;;;18.88;15.20;;;;;;;;;;5003593;28;20298;-72
2024/02/17 08:22:20;;;;;;;19.25;13.38;;;;;;;;;;4983603;28;20283;-72
2024/02/17 08:24:48;;;;;;;16.25;13.40;;;;;;;;;;4986322;28;20254;-70
2024/02/17 08:27:17;;;;;;;25.08;18.95;;;;;;;;;;5003444;28;20745;-70
2024/02/17 08:29:46;;;;;;;32.05;26.35;;;;;;;;;;4987832;28;20247;-72
2024/02/17 08:32:14;;;;;;;39.55;29.92;;;;;;;;;;4968687;28;20314;-71
2024/02/17 08:34:42;;;;;;;23.95;19.50;;;;;;;;;;4987431;28;20314;-72
2024/02/17 08:37:12;;;;;;;16.00;11.23;;;;;;;;;;4985260;28;20259;-72
2024/02/17 08:39:40;;;;;;;12.80;10.77;;;;;;;;;;4988324;28;20282;-71
2024/02/17 08:42:10;;;;;;;10.57;9.48;;;;;;;;;;4990135;28;20256;-69
2024/02/17 08:44:38;;;;;;;14.97;11.30;;;;;;;;;;5003537;28;20285;-70
2024/02/17 08:47:08;;;;;;;11.30;9.93;;;;;;;;;;5006250;28;20633;-69
2024/02/17 08:49:36;;;;;;;11.85;10.60;;;;;;;;;;5004368;28;20227;-70
2024/02/17 08:52:04;;;;;;;12.00;9.70;;;;;;;;;;5010995;28;20252;-71
2024/02/17 08:54:32;;;;;;;11.75;9.50;;;;;;;;;;5012505;28;20233;-71
2024/02/17 08:57:01;;;;;;;9.30;8.30;;;;;;;;;;4979205;28;20256;-71
2024/02/17 08:59:29;;;;;;;12.33;11.13;;;;;;;;;;4996691;28;20225;-70
2024/02/17 09:01:57;;;;;;;8.60;7.70;;;;;;;;;;4996022;28;20609;-70
2024/02/17 09:04:26;;;;;;;9.27;8.30;;;;;;;;;;4994432;28;20634;-69
2024/02/17 09:06:55;;;;;;;10.90;7.47;;;;;;;;;;5010574;28;20218;-70
2024/02/17 09:09:23;;;;;;;7.80;7.00;;;;;;;;;;4996437;28;20647;-70
2024/02/17 09:11:51;;;;;;;11.83;7.90;;;;;;;;;;4993081;28;20633;-73
2024/02/17 09:14:19;;;;;;;8.00;7.30;;;;;;;;;;4995044;28;20600;-70
2024/02/17 09:16:48;;;;;;;8.30;7.43;;;;;;;;;;5005517;28;20639;-68
2024/02/17 09:19:16;;;;;;;13.00;8.73;;;;;;;;;;4989318;28;20230;-70
2024/02/17 09:21:45;;;;;;;7.83;7.10;;;;;;;;;;4976222;28;20564;-71
2024/02/17 09:24:18;;;;;;;8.50;7.70;;;;;;;;;;4974061;28;20585;-71
2024/02/17 09:26:47;;;;;;;7.87;6.10;;;;;;;;;;4972161;28;20664;-71
2024/02/17 09:29:15;;;;;;;8.13;7.07;;;;;;;;;;4956297;28;20585;-71
2024/02/17 09:31:43;;;;;;;7.13;6.23;;;;;;;;;;4980758;28;20704;-70
2024/02/17 09:34:11;;;;;;;8.70;7.90;;;;;;;;;;4972119;28;20669;-71
2024/02/17 09:36:39;;;;;;;8.97;6.90;;;;;;;;;;4972737;28;20584;-71
2024/02/17 09:39:09;;;;;;;7.93;7.13;;;;;;;;;;4973955;28;20697;-71
2024/02/17 09:41:37;;;;;;;10.60;6.97;;;;;;;;;;4973567;28;20597;-71
2024/02/17 09:44:06;;;;;;;10.70;6.73;;;;;;;;;;4973276;28;21180;-70
2024/02/17 09:46:34;;;;;;;9.07;6.73;;;;;;;;;;4966998;28;21198;-69
2024/02/17 09:49:03;;;;;;;8.37;7.33;;;;;;;;;;4952480;28;20620;-70
2024/02/17 09:51:32;;;;;;;7.17;6.47;;;;;;;;;;4953865;29;20961;-71
2024/02/17 09:54:00;;;;;;;6.90;6.30;;;;;;;;;;4953756;29;21193;-70
2024/02/17 09:56:30;;;;;;;10.50;6.20;;;;;;;;;;4968872;28;20595;-71
2024/02/17 09:58:59;;;;;;;7.17;6.47;;;;;;;;;;4973139;28;20684;-70
2024/02/17 10:01:27;;;;;;;8.80;5.87;;;;;;;;;;4973283;28;20651;-70
2024/02/17 10:03:55;;;;;;;8.53;6.27;;;;;;;;;;4971038;28;20621;-70
2024/02/17 10:06:24;;;;;;;5.37;4.87;;;;;;;;;;4962328;28;20580;-70
2024/02/17 10:08:52;;;;;;;6.10;5.50;;;;;;;;;;4952533;29;20600;-70
2024/02/17 10:11:23;;;;;;;5.20;4.83;;;;;;;;;;4953665;29;20650;-71
2024/02/17 10:14:01;;;;;;;5.67;5.10;;;;;;;;;;4953249;28;21006;-72
2024/02/17 10:16:30;;;;;;;8.10;5.10;;;;;;;;;;4973013;28;20609;-70
2024/02/17 10:18:59;;;;;;;6.43;5.77;;;;;;;;;;4972834;28;20625;-70
2024/02/17 10:21:28;;;;;;;8.97;6.07;;;;;;;;;;4973200;28;20611;-70
2024/02/17 10:23:56;;;;;;;4.73;4.33;;;;;;;;;;4971319;28;20611;-70
2024/02/17 10:26:26;;;;;;;5.40;5.00;;;;;;;;;;4958612;28;20608;-69
2024/02/17 10:28:55;;;;;;;6.07;5.27;;;;;;;;;;4952436;29;20634;-70
2024/02/17 10:31:25;;;;;;;6.33;5.67;;;;;;;;;;4952658;29;20569;-70
2024/02/17 10:33:53;;;;;;;5.87;5.03;;;;;;;;;;4968523;28;20670;-70
2024/02/17 10:36:22;;;;;;;8.73;5.30;;;;;;;;;;4992319;28;20610;-70
2024/02/17 10:38:51;;;;;;;6.10;4.80;;;;;;;;;;4992235;28;20626;-70
2024/02/17 10:41:19;;;;;;;5.10;4.70;;;;;;;;;;4991465;28;20578;-70
2024/02/17 10:43:48;;;;;;;6.50;6.00;;;;;;;;;;4987726;28;20624;-71
2024/02/17 10:46:19;;;;;;;6.67;5.73;;;;;;;;;;4984455;28;20600;-70
2024/02/17 10:48:52;;;;;;;5.93;5.10;;;;;;;;;;4991943;28;20622;-69
2024/02/17 10:51:20;;;;;;;8.93;5.40;;;;;;;;;;4991965;28;20587;-70
2024/02/17 10:53:50;;;;;;;5.80;5.30;;;;;;;;;;4991164;28;20628;-70
2024/02/17 10:56:20;;;;;;;6.27;5.47;;;;;;;;;;4991610;28;20636;-70
2024/02/17 10:58:49;;;;;;;6.03;5.10;;;;;;;;;;4991898;28;20622;-71
2024/02/17 11:01:18;;;;;;;5.67;5.07;;;;;;;;;;4991775;28;20573;-71
2024/02/17 11:03:46;;;;;;;5.37;4.83;;;;;;;;;;4982908;28;20629;-70
2024/02/17 11:06:17;;;;;;;5.63;5.13;;;;;;;;;;4983444;28;20602;-70
2024/02/17 11:08:46;;;;;;;5.00;4.57;;;;;;;;;;4992111;28;20952;-69
2024/02/17 11:11:24;;;;;;;10.17;5.23;;;;;;;;;;4974477;28;21123;-72
2024/02/17 11:13:52;;;;;;;5.83;5.43;;;;;;;;;;4972402;28;20609;-71
2024/02/17 11:16:21;;;;;;;6.33;5.93;;;;;;;;;;4986742;28;20693;-72
2024/02/17 11:18:51;;;;;;;6.33;5.93;;;;;;;;;;4995651;28;20970;-72
2024/02/17 11:21:26;;;;;;;7.03;6.53;;;;;;;;;;4995662;28;20593;-72
2024/02/17 11:23:58;;;;;;;7.90;7.40;;;;;;;;;;4993014;28;20597;-71
2024/02/17 11:26:26;;;;;;;9.50;8.83;;;;;;;;;;4995328;28;20578;-72
2024/02/17 11:28:56;;;;;;;9.70;9.07;;;;;;;;;;4995508;28;20598;-72
2024/02/17 11:31:28;;;;;;;9.57;9.00;;;;;;;;;;4977968;28;20628;-73
2024/02/17 11:34:00;;;;;;;10.53;9.83;;;;;;;;;;4994674;28;20673;-72
2024/02/17 11:36:31;;;;;;;11.33;10.50;;;;;;;;;;4995490;28;20909;-71
2024/02/17 11:39:00;;;;;;;11.90;11.00;;;;;;;;;;4977856;28;20596;-73
2024/02/17 11:41:29;;;;;;;12.23;11.63;;;;;;;;;;4991250;28;20625;-73
2024/02/17 11:43:57;;;;;;;12.07;11.37;;;;;;;;;;4975850;28;20637;-72
2024/02/17 11:46:25;;;;;;;12.60;12.00;;;;;;;;;;4975853;28;21532;-72
2024/02/17 11:48:53;;;;;;;13.17;12.37;;;;;;;;;;4975663;28;20944;-70
2024/02/17 11:51:23;;;;;;;14.73;13.93;;;;;;;;;;4988957;28;20598;-72
2024/02/17 11:53:54;;;;;;;12.87;11.93;;;;;;;;;;4995239;28;20633;-71
2024/02/17 11:56:22;;;;;;;13.23;12.40;;;;;;;;;;4994961;28;20948;-72
2024/02/17 11:58:53;;;;;;;13.90;13.00;;;;;;;;;;4994971;28;20597;-70
2024/02/17 12:01:21;;;;;;;12.80;12.00;;;;;;;;;;4986700;28;20580;-72
2024/02/17 12:03:49;;;;;;;13.60;12.70;;;;;;;;;;4975568;28;20641;-72
2024/02/17 12:06:17;;;;;;;13.93;13.10;;;;;;;;;;4968611;28;20598;-71
2024/02/17 12:08:45;;;;;;;12.47;11.60;;;;;;;;;;4994665;28;20955;-71
2024/02/17 12:11:14;;;;;;;11.20;10.50;;;;;;;;;;4994058;28;20662;-71
2024/02/17 12:13:43;;;;;;;11.00;10.30;;;;;;;;;;4994947;28;20974;-72
2024/02/17 12:16:11;;;;;;;16.33;14.83;;;;;;;;;;4977599;28;20612;-72
2024/02/17 12:18:40;;;;;;;12.60;11.70;;;;;;;;;;4977473;28;20586;-71
2024/02/17 12:21:10;;;;;;;90.63;63.63;;;;;;;;;;4992758;28;20932;-72
2024/02/17 12:23:39;;;;;;;212.27;124.97;;;;;;;;;;4986349;28;20610;-73
2024/02/17 12:26:09;;;;;;;10.77;10.07;;;;;;;;;;4985496;28;20994;-72
2024/02/17 12:28:40;;;;;;;12.20;11.30;;;;;;;;;;4993967;28;20589;-72
2024/02/17 12:31:10;;;;;;;12.27;11.50;;;;;;;;;;4994083;28;20631;-73
2024/02/17 12:33:49;;;;;;;12.03;10.73;;;;;;;;;;4990898;28;20670;-72
2024/02/17 12:36:21;;;;;;;13.80;12.63;;;;;;;;;;4985141;28;20580;-71
2024/02/17 12:38:49;;;;;;;12.33;11.47;;;;;;;;;;4994444;28;20590;-71
2024/02/17 12:41:17;;;;;;;11.07;10.30;;;;;;;;;;4994178;28;21173;-71
2024/02/17 12:43:51;;;;;;;11.87;11.07;;;;;;;;;;4993839;28;20616;-71
2024/02/17 12:46:19;;;;;;;13.27;12.37;;;;;;;;;;4994390;28;20601;-72
2024/02/17 12:48:49;;;;;;;10.80;10.30;;;;;;;;;;4994053;28;20647;-72
2024/02/17 12:51:21;;;;;;;11.50;10.70;;;;;;;;;;4994430;28;20570;-72
2024/02/17 12:53:49;;;;;;;12.27;11.67;;;;;;;;;;4991465;28;20646;-72
2024/02/17 12:56:18;;;;;;;13.30;12.60;;;;;;;;;;4976510;28;20597;-71
2024/02/17 12:58:46;;;;;;;14.60;13.77;;;;;;;;;;4994047;28;20585;-72
2024/02/17 13:01:15;;;;;;;14.57;13.23;;;;;;;;;;4993547;28;21176;-73
2024/02/17 13:03:45;;;;;;;13.30;12.73;;;;;;;;;;4993933;28;20598;-71
2024/02/17 13:06:14;;;;;;;14.10;13.40;;;;;;;;;;4969064;28;20622;-72
2024/02/17 13:08:42;;;;;;;14.57;13.67;;;;;;;;;;4974873;28;20618;-72
2024/02/17 13:11:10;;;;;;;14.33;13.53;;;;;;;;;;4973582;28;20637;-69
2024/02/17 13:13:39;;;;;;;14.00;13.40;;;;;;;;;;4959510;28;20711;-69
2024/02/17 13:16:07;;;;;;;14.20;13.10;;;;;;;;;;4933358;28;20749;-73
2024/02/17 13:18:37;;;;;;;15.20;14.20;;;;;;;;;;4943619;28;20199;-73
2024/02/17 13:21:05;;;;;;;15.00;14.30;;;;;;;;;;4947351;28;20644;-73
2024/02/17 13:23:34;;;;;;;15.50;14.50;;;;;;;;;;4938757;28;20611;-73
2024/02/17 13:26:02;;;;;;;15.67;14.67;;;;;;;;;;4939884;28;20629;-73
2024/02/17 13:28:30;;;;;;;14.97;14.07;;;;;;;;;;4917533;28;21120;-73
2024/02/17 13:30:58;;;;;;;14.73;14.03;;;;;;;;;;4955765;28;21020;-73
2024/02/17 13:33:27;;;;;;;15.63;14.53;;;;;;;;;;4930433;28;20688;-80
2024/02/17 13:35:57;;;;;;;14.20;13.30;;;;;;;;;;4929078;28;20623;-72
2024/02/17 13:38:25;;;;;;;13.90;13.20;;;;;;;;;;4962691;28;20638;-73
2024/02/17 13:40:53;;;;;;;13.50;12.80;;;;;;;;;;4958117;28;20742;-74
2024/02/17 13:43:22;;;;;;;13.70;13.00;;;;;;;;;;4930451;28;20583;-73
2024/02/17 13:45:51;;;;;;;14.80;13.70;;;;;;;;;;4926043;28;20626;-73
2024/02/17 13:48:20;;;;;;;14.40;13.30;;;;;;;;;;4984298;28;20654;-73
2024/02/17 13:50:49;;;;;;;13.80;13.20;;;;;;;;;;4972986;28;20718;-74
2024/02/17 13:53:19;;;;;;;13.87;13.27;;;;;;;;;;4980111;28;20623;-73
2024/02/17 13:55:47;;;;;;;13.20;12.70;;;;;;;;;;4978303;28;20613;-74
2024/02/17 13:58:15;;;;;;;14.00;13.10;;;;;;;;;;4991328;28;20654;-74
2024/02/17 14:00:43;;;;;;;13.27;12.67;;;;;;;;;;4967234;28;20721;-76
2024/02/17 14:03:12;;;;;;;13.30;12.60;;;;;;;;;;4967583;28;20615;-73
2024/02/17 14:05:40;;;;;;;14.23;13.30;;;;;;;;;;4970322;28;21138;-77
2024/02/17 14:08:09;;;;;;;14.17;13.47;;;;;;;;;;4960614;28;21119;-74
2024/02/17 14:10:38;;;;;;;14.37;13.57;;;;;;;;;;4932672;28;20623;-74
2024/02/17 14:13:06;;;;;;;13.57;12.90;;;;;;;;;;4951665;28;20605;-75
2024/02/17 14:15:35;;;;;;;14.10;13.30;;;;;;;;;;4959077;28;20677;-72
2024/02/17 14:18:03;;;;;;;14.90;14.00;;;;;;;;;;4950013;28;20702;-74
2024/02/17 14:20:31;;;;;;;13.87;13.23;;;;;;;;;;4955140;28;20610;-73
2024/02/17 14:22:59;;;;;;;13.97;13.10;;;;;;;;;;4948030;28;20630;-72
2024/02/17 14:25:28;;;;;;;15.33;14.27;;;;;;;;;;4950301;28;21271;-74
2024/02/17 14:27:57;;;;;;;15.27;14.50;;;;;;;;;;4962679;28;20679;-73
2024/02/17 14:30:27;;;;;;;14.27;13.57;;;;;;;;;;4939394;28;20948;-73
2024/02/17 14:32:55;;;;;;;14.10;13.27;;;;;;;;;;4952275;28;20614;-73
2024/02/17 14:35:24;;;;;;;14.57;13.77;;;;;;;;;;4974164;28;21038;-73
